Graceful Lady — 00 — position and weather

sailwx.info

Track history (hours):
 
Tides and Currents Weather Stations Pressure Air Temp Water Temp Dewpoint Dewpoint Depression Visibility Wind Speed Wind Dir Waves Ship Positions

Graceful Lady

Last reported at 2015-Jul-06 10:33 UTC. Time now 2015-Jul-06 11:21 UTC.
Position N 23°02' E 113°31'.

Length 6 m.

Type: Pollution control. MMSI: 316014038.

Date/timePositionNaut miles runAvg speedWind from/ knotsBaromVisibWave heightAir tempDewpointWater temp
2015-Jul-06 10:33N 23°02' E 113°31'9733482.4
2015-Jul-06 10:16N 37°51' E 121°10'9731154.6
2015-Jul-06 09:26N 23°02' E 113°31'9774318.9
2015-Jul-06 09:12N 37°54' E 121°12'9751511.0
2015-Jul-06 08:33N 23°03' E 113°31'97146628.0
2015-Jul-06 08:32N 37°50' E 121°09'362901.5
2015-Jul-06 08:08N 31°49' E 120°56'6581115.2
2015-Jul-06 07:33N 23°03' E 113°31'1 1.3
2015-Jul-06 06:32N 23°02' E 113°31'0 0.0
2015-Jul-06 05:31N 23°02' E 113°31'0 0.0
2015-Jul-06 04:33N 23°02' E 113°31'0 0.0
2015-Jul-06 03:33N 23°02' E 113°31'0 0.0
2015-Jul-06 02:30N 23°02' E 113°31'6596612.1
2015-Jul-06 02:24N 31°49' E 120°57'659633.0
2015-Jul-06 01:22N 23°02' E 113°31'6200245293.3
2015-Jul-06 01:20N 48°34' W 123°02'62007371.8
2015-Jul-06 00:30N 23°02' E 113°31'0 0.0
2015-Jul-05 23:30N 23°02' E 113°31'0 0.0
2015-Jul-05 22:32N 23°02' E 113°31'0 0.0
2015-Jul-05 21:22N 23°02' E 113°31'0 0.0
2015-Jul-05 20:21N 23°02' E 113°31'6596724.3
2015-Jul-05 20:16N 31°49' E 120°57'659915.0
2015-Jul-05 19:32N 23°02' E 113°31'65931648.5
2015-Jul-05 19:31N 31°49' E 120°57'659679.7
2015-Jul-05 18:33N 23°02' E 113°31'0 0.0
2015-Jul-05 17:33N 23°02' E 113°31'66013646.6
2015-Jul-05 17:30N 31°49' E 120°57'660682.7
2015-Jul-05 16:32N 23°02' E 113°31'0 0.0
2015-Jul-05 15:32N 23°02' E 113°31'0 0.0
2015-Jul-05 14:31N 23°02' E 113°31'6591725.1
2015-Jul-05 14:08N 31°49' E 120°57'6591119.7
2015-Jul-05 13:33N 23°02' E 113°31'6591348.0
2015-Jul-05 13:03N 31°49' E 120°57'6591237.7
2015-Jul-05 12:31N 23°02' E 113°31'0 0.0
2015-Jul-05 11:27N 23°02' E 113°31'659698.0
2015-Jul-05 10:31N 31°49' E 120°57'659690.3
2015-Jul-05 09:33N 23°02' E 113°31'0 0.0
2015-Jul-05 08:30N 23°02' E 113°31'6592082.3
2015-Jul-05 08:11N 31°49' E 120°57'6591042.0
2015-Jul-05 07:33N 23°01' E 113°32'6593405.4
2015-Jul-05 07:22N 31°49' E 120°57'659819.3
2015-Jul-05 06:33N 23°01' E 113°32'6598156.6
2015-Jul-05 06:28N 31°49' E 120°57'659712.6
2015-Jul-05 05:33N 23°01' E 113°32'66060959.0
2015-Jul-05 05:32N 31°32' E 121°22'27138.2
2015-Jul-05 05:20N 31°49' E 120°57'3340.2
2015-Jul-05 04:32N 31°29' E 121°27'33299.9
2015-Jul-05 04:25N 31°49' E 120°57'3742.3
2015-Jul-05 03:32N 31°26' E 121°31'5342.7
2015-Jul-05 02:18N 32°01' E 120°45'4 3.4
2015-Jul-05 01:09N 31°60' E 120°50'2 3.3
2015-Jul-05 00:25N 31°58' E 120°52'3 3.0
2015-Jul-04 23:26N 31°55' E 120°53'7212.3
2015-Jul-04 23:24N 31°48' E 120°55'8 8.5
2015-Jul-04 22:28N 31°56' E 120°52'24 6.2
2015-Jul-04 18:31N 31°39' E 121°13'7 7.0
2015-Jul-04 17:33N 31°35' E 121°19'14 6.2
2015-Jul-04 15:19N 31°25' E 121°31'2 0.6
2015-Jul-04 11:33N 31°23' E 121°30'441376.4
2015-Jul-04 10:22N 38°16' E 118°22'449506.7
2015-Jul-04 09:29N 31°15' E 121°30'4497694.0
2015-Jul-04 09:26N 38°16' E 118°22'5 3.8
2015-Jul-04 08:13N 38°16' E 118°16'951190.1
2015-Jul-04 03:13N 22°57' E 113°33'4 6.4
2015-Jul-04 02:33N 23°01' E 113°31'1 0.6
2015-Jul-04 01:22N 23°01' E 113°32'0 0.0
2015-Jul-04 00:26N 23°01' E 113°32'0 0.0
2015-Jul-03 23:33N 23°01' E 113°32'0 0.0
2015-Jul-03 22:29N 23°01' E 113°32'0 0.0
2015-Jul-03 18:31N 23°01' E 113°32'0 0.0
2015-Jul-03 17:31N 23°01' E 113°32'0 0.0
2015-Jul-03 16:27N 23°01' E 113°32'0 0.0
2015-Jul-03 15:29N 23°01' E 113°32'0 0.0
2015-Jul-03 14:31N 23°01' E 113°32'0 0.0
2015-Jul-03 13:29N 23°01' E 113°32'0 0.0
2015-Jul-03 12:29N 23°01' E 113°32'0 0.0
2015-Jul-03 11:25N 23°01' E 113°32'0 0.0
2015-Jul-03 10:32N 23°01' E 113°32'0 0.0
2015-Jul-03 09:21N 23°01' E 113°32'0 0.0
2015-Jul-03 08:13N 23°01' E 113°32'0 0.0
2015-Jul-03 07:33N 23°01' E 113°32'0 0.0
2015-Jul-03 06:22N 23°01' E 113°32'0 0.0
2015-Jul-03 05:31N 23°01' E 113°32'0 0.0
2015-Jul-03 04:27N 23°01' E 113°32'0 0.0
2015-Jul-03 03:33N 23°01' E 113°32'948959411.7
2015-Jul-03 03:24N 41°22' W 072°05'2 2.7
2015-Jul-03 02:29N 41°24' W 072°06'94881897575.1
2015-Jul-03 02:29N 23°01' E 113°32'0 0.0
2015-Jul-03 01:32N 23°01' E 113°32'0 0.0
2015-Jul-03 00:31N 23°01' E 113°32'0 0.0
2015-Jul-02 23:33N 23°01' E 113°32'6802499755.3
2015-Jul-02 23:32N 33°46' W 118°11'22391796.6
2015-Jul-02 22:17N 41°30' W 072°05'870336303.2
2015-Jul-02 22:03N 38°55' E 117°49'871217366.2
2015-Jul-02 21:33N 41°22' W 072°05'948949082.6
2015-Jul-02 21:21N 23°01' E 113°32'0 0.0
2015-Jul-02 20:31N 23°01' E 113°32'1 1.2
2015-Jul-02 19:33N 23°02' E 113°31'0 0.0
2015-Jul-02 18:32N 23°02' E 113°31'0 0.0
2015-Jul-02 17:33N 23°02' E 113°31'0 0.0
2015-Jul-02 15:31N 23°02' E 113°31'9478832.3
2015-Jul-02 15:25N 38°16' E 118°20'9471009.3
2015-Jul-02 14:29N 23°02' E 113°31'0 0.0
2015-Jul-02 13:33N 23°02' E 113°31'0 0.0
2015-Jul-02 12:33N 23°02' E 113°31'0 0.0
2015-Jul-02 11:33N 23°02' E 113°31'98815954.1
2015-Jul-02 11:30N 39°03' E 117°59'9881053.2
2015-Jul-02 10:33N 23°02' E 113°31'0 0.0
2015-Jul-02 09:32N 23°02' E 113°31'0 0.0
2015-Jul-02 08:32N 23°02' E 113°31'948972.3
2015-Jul-02 07:33N 38°16' E 118°21'94833790.3
2015-Jul-02 07:32N 23°02' E 113°31'9895484.8
2015-Jul-02 07:21N 39°04' E 117°57'9891250.7
2015-Jul-02 06:34N 23°02' E 113°31'0 0.0
2015-Jul-02 05:33N 23°02' E 113°31'0 0.0
2015-Jul-02 04:33N 23°02' E 113°31'0 0.0
2015-Jul-02 03:32N 23°02' E 113°31'0 0.0
2015-Jul-02 02:33N 23°02' E 113°31'1 1.2
2015-Jul-02 01:33N 23°03' E 113°31'0 0.0
2015-Jul-02 00:33N 23°03' E 113°31'0 0.0
2015-Jul-01 23:32N 23°03' E 113°31'9894133.1
2015-Jul-01 23:18N 39°05' E 117°57'9901321.0
2015-Jul-01 22:33N 23°02' E 113°31'0 0.0
2015-Jul-01 21:33N 23°02' E 113°31'0 0.0
2015-Jul-01 20:30N 23°02' E 113°31'0 0.0
2015-Jul-01 19:33N 23°02' E 113°31'0 0.0
2015-Jul-01 18:33N 23°02' E 113°31'620220186.2
2015-Jul-01 18:15N 48°32' W 123°01'62028476.1
2015-Jul-01 17:31N 23°02' E 113°31'618538860.2
2015-Jul-01 17:21N 48°39' W 123°19'9231131.4
2015-Jul-01 16:33N 33°46' W 118°12'6802211098.7
2015-Jul-01 16:31N 23°02' E 113°31'0 0.0
2015-Jul-01 15:31N 23°02' E 113°31'0 0.0
2015-Jul-01 13:32N 23°02' E 113°31'0 0.0
2015-Jul-01 12:33N 23°02' E 113°31'0 0.0
2015-Jul-01 11:28N 23°02' E 113°31'0 0.0
2015-Jul-01 10:32N 23°02' E 113°31'6632874.0
2015-Jul-01 10:18N 32°02' E 120°45'3158.2
2015-Jul-01 10:17N 32°01' E 120°49'4 5.0
2015-Jul-01 09:33N 31°58' E 120°51'66455564.1
2015-Jul-01 09:33N 23°02' E 113°31'0 0.0
2015-Jul-01 08:33N 23°02' E 113°31'66110624.4
2015-Jul-01 08:30N 31°53' E 120°53'661704.1
2015-Jul-01 07:33N 23°02' E 113°31'658124753.1
2015-Jul-01 07:33N 31°49' E 120°55'658661.7
2015-Jul-01 06:33N 23°02' E 113°31'0 0.0
2015-Jul-01 05:33N 23°02' E 113°31'0 0.0
2015-Jul-01 04:33N 23°02' E 113°31'6601515.3
2015-Jul-01 04:07N 31°35' E 121°19'6601159.8
2015-Jul-01 03:33N 23°02' E 113°31'6604193.2
2015-Jul-01 03:24N 31°31' E 121°24'660784.4
2015-Jul-01 02:33N 23°02' E 113°31'66024751.7
2015-Jul-01 02:32N 31°26' E 121°30'9 8.9
2015-Jul-01 01:33N 31°22' E 121°39'66270095.4
2015-Jul-01 01:33N 23°02' E 113°31'618415072.8
2015-Jul-01 01:08N 48°38' W 123°21'53869247.0
2015-Jul-01 00:33N 31°16' E 121°46'6621879.4
2015-Jul-01 00:12N 23°02' E 113°31'6621022.2
2015-Jun-30 23:33N 31°11' E 121°51'662264638.5
2015-Jun-30 23:33N 23°02' E 113°31'0 0.0
2015-Jun-30 22:33N 23°02' E 113°31'6628735.9
2015-Jun-30 22:29N 31°07' E 121°57'662716.8
2015-Jun-30 21:33N 23°02' E 113°31'0 0.0
2015-Jun-30 20:33N 23°02' E 113°31'0 0.0
2015-Jun-30 19:32N 23°02' E 113°31'0 0.0
2015-Jun-30 18:33N 23°02' E 113°31'0 0.0
2015-Jun-30 17:32N 23°02' E 113°31'0 0.0
2015-Jun-30 16:33N 23°02' E 113°31'0 0.0
2015-Jun-30 15:33N 23°02' E 113°31'0 0.0
2015-Jun-30 14:33N 23°02' E 113°31'0 0.0
2015-Jun-30 13:33N 23°02' E 113°31'0 0.0
2015-Jun-30 12:33N 23°02' E 113°31'0 0.0
2015-Jun-30 11:33N 23°02' E 113°31'6172865.6
2015-Jun-30 11:21N 29°59' E 121°58'617780.6
2015-Jun-30 10:33N 23°02' E 113°31'61924210.6
2015-Jun-30 10:32N 29°56' E 122°05'619638.8
2015-Jun-30 09:33N 23°02' E 113°31'664654.6
2015-Jun-30 08:33N 32°01' E 120°49'66479703.7
2015-Jun-30 08:32N 23°02' E 113°31'0 0.0
2015-Jun-30 07:33N 23°02' E 113°31'6634690.0
2015-Jun-30 07:24N 31°57' E 120°53'663727.4
2015-Jun-30 06:30N 23°02' E 113°31'66114083.4
2015-Jun-30 06:27N 31°53' E 120°54'661700.2
2015-Jun-30 05:30N 23°02' E 113°31'65950478.7
2015-Jun-30 05:29N 31°49' E 120°56'4 4.4
2015-Jun-30 04:32N 31°47' E 120°60'659263647.9
2015-Jun-30 04:32N 23°02' E 113°31'1 1.1
2015-Jun-30 03:32N 23°03' E 113°31'0 0.0
2015-Jun-30 02:33N 23°03' E 113°31'0 0.0
2015-Jun-30 01:33N 23°03' E 113°31'0 0.0
2015-Jun-30 00:33N 23°03' E 113°31'0 0.0
2015-Jun-29 23:30N 23°03' E 113°31'1 1.2
2015-Jun-29 22:33N 23°02' E 113°31'0 0.0
2015-Jun-29 21:26N 23°02' E 113°31'0 0.0
2015-Jun-29 20:31N 23°02' E 113°31'0 0.0
2015-Jun-29 19:33N 23°02' E 113°31'0 0.0
2015-Jun-29 18:31N 23°02' E 113°31'0 0.0
2015-Jun-29 17:33N 23°02' E 113°31'0 0.0
2015-Jun-29 16:32N 23°02' E 113°31'0 0.0
2015-Jun-29 15:33N 23°02' E 113°31'0 0.0
2015-Jun-29 14:33N 23°02' E 113°31'0 0.0
2015-Jun-29 13:33N 23°02' E 113°31'0 0.0
2015-Jun-29 12:32N 23°02' E 113°31'0 0.0
2015-Jun-29 11:33N 23°02' E 113°31'0 0.1
2015-Jun-29 10:32N 23°02' E 113°31'0 0.0
2015-Jun-29 09:32N 23°02' E 113°31'0 0.1
2015-Jun-29 08:33N 23°02' E 113°31'1 1.2
2015-Jun-29 07:33N 23°03' E 113°31'66215084.4
2015-Jun-29 07:31N 31°47' E 121°06'662690.8
2015-Jun-29 06:33N 23°03' E 113°31'6615818.8
2015-Jun-29 06:26N 31°45' E 121°07'661714.7
2015-Jun-29 05:31N 23°03' E 113°31'978159991.7
2015-Jun-29 05:30N 38°55' E 117°49'465490.8
2015-Jun-29 04:34N 31°41' E 121°12'66131726.7
2015-Jun-29 04:32N 23°02' E 113°31'661675.0
2015-Jun-29 03:34N 31°38' E 121°16'66179317.5
2015-Jun-29 03:33N 23°02' E 113°31'660665.9
2015-Jun-29 02:34N 31°34' E 121°19'66020494.5
2015-Jun-29 02:32N 23°01' E 113°32'1 1.0
2015-Jun-29 01:32N 23°02' E 113°31'0 0.0
2015-Jun-29 00:20N 23°02' E 113°31'0 0.0
2015-Jun-28 23:33N 23°02' E 113°31'0 0.0
2015-Jun-28 22:33N 23°02' E 113°31'0 0.0
2015-Jun-28 21:25N 23°02' E 113°31'0 0.0
2015-Jun-28 20:33N 23°02' E 113°31'0 0.0
2015-Jun-28 19:22N 23°02' E 113°31'0 0.0
2015-Jun-28 18:26N 23°02' E 113°31'0 0.0
2015-Jun-28 17:33N 23°02' E 113°31'0 0.0
2015-Jun-28 16:33N 23°02' E 113°31'0 0.0
2015-Jun-28 14:31N 23°02' E 113°31'0 0.0
2015-Jun-28 13:32N 23°02' E 113°31'0 0.0
2015-Jun-28 12:33N 23°02' E 113°31'0 0.0
2015-Jun-28 11:32N 23°02' E 113°31'0 0.1
2015-Jun-28 10:31N 23°02' E 113°31'1 1.0
2015-Jun-28 09:32N 23°01' E 113°32'0 0.0
2015-Jun-28 08:33N 23°01' E 113°32'0 0.0
2015-Jun-28 07:32N 23°01' E 113°32'0 0.0
2015-Jun-28 06:32N 23°01' E 113°32'9892398.3
2015-Jun-28 06:07N 39°04' E 117°56'9891770.1
2015-Jun-28 05:33N 23°01' E 113°32'66468251.0
2015-Jun-28 05:33N 31°58' E 120°51'664661.3
2015-Jun-28 04:32N 23°01' E 113°32'0 0.0
2015-Jun-28 03:32N 23°01' E 113°32'1 1.1
2015-Jun-28 02:33N 23°02' E 113°31'9874934.4
2015-Jun-28 02:21N 39°02' E 117°57'9871220.5
2015-Jun-28 01:32N 23°02' E 113°31'6632609.7
2015-Jun-28 01:17N 32°02' E 120°45'663902.5
2015-Jun-28 00:33N 23°02' E 113°31'0 0.0
2015-Jun-27 23:33N 23°02' E 113°31'0 0.0
2015-Jun-27 22:33N 23°02' E 113°31'680162299.0
2015-Jun-27 22:26N 33°45' W 118°13'68017735.7
2015-Jun-27 21:33N 23°02' E 113°31'0 0.1
2015-Jun-27 20:33N 23°02' E 113°31'0 0.0
2015-Jun-27 19:33N 23°02' E 113°31'0 0.0
2015-Jun-27 18:32N 23°02' E 113°31'0 0.0
2015-Jun-27 17:33N 23°02' E 113°31'0 0.0
2015-Jun-27 16:34N 23°02' E 113°31'0 0.1
2015-Jun-27 15:34N 23°02' E 113°31'0 0.0
2015-Jun-27 14:31N 23°02' E 113°31'0 0.0
2015-Jun-27 13:33N 23°02' E 113°31'0 0.0
2015-Jun-27 12:33N 23°02' E 113°31'98815603.0
2015-Jun-27 12:29N 39°05' E 117°51'53200.7
2015-Jun-27 12:14N 38°16' E 118°19'9471409.4
2015-Jun-27 11:33N 23°02' E 113°31'9479115.5
2015-Jun-27 11:27N 38°16' E 118°19'9471026.2
2015-Jun-27 10:32N 23°02' E 113°31'9474651.0
2015-Jun-27 10:19N 38°16' E 118°19'9471205.9
2015-Jun-27 09:32N 23°02' E 113°31'94739641.6
2015-Jun-27 09:31N 38°16' E 118°19'947866.6
2015-Jun-27 08:25N 23°02' E 113°31'94713746.9
2015-Jun-27 08:21N 38°16' E 118°19'0 0.0
2015-Jun-27 07:33N 38°16' E 118°19'94779283.7
2015-Jun-27 07:33N 23°02' E 113°31'0 0.0
2015-Jun-27 06:33N 23°02' E 113°31'0 0.1
2015-Jun-27 05:33N 23°02' E 113°31'947154964.3
2015-Jun-27 05:33N 38°16' E 118°19'947942.3
2015-Jun-27 04:33N 23°02' E 113°31'1 1.2
2015-Jun-27 03:31N 23°01' E 113°32'0 0.0
2015-Jun-27 02:32N 23°01' E 113°32'0 0.0
2015-Jun-27 01:33N 23°01' E 113°32'0 0.0
2015-Jun-27 00:33N 23°01' E 113°32'0 0.0
2015-Jun-26 23:33N 23°01' E 113°32'63223211.1
2015-Jun-26 23:32N 30°58' E 121°17'632646.9
2015-Jun-26 22:33N 23°01' E 113°32'6652300.4
2015-Jun-26 22:16N 32°04' E 120°45'666832.8
2015-Jun-26 21:28N 23°00' E 113°31'990228.0
2015-Jun-26 17:07N 39°05' E 117°51'499886.7
2015-Jun-26 16:33N 31°22' E 121°40'4991102.5
2015-Jun-26 16:06N 39°05' E 117°51'499914.2
2015-Jun-26 15:33N 31°22' E 121°40'0 0.0
2015-Jun-26 14:32N 31°22' E 121°40'4991677.3
2015-Jun-26 14:14N 39°05' E 117°51'913.5
2015-Jun-26 13:33N 38°59' E 117°43'49659553.6
2015-Jun-26 13:32N 31°22' E 121°40'496500.2
2015-Jun-26 12:33N 38°59' E 117°43'496119111.7
2015-Jun-26 12:33N 31°22' E 121°40'4991249.1
2015-Jun-26 12:09N 39°05' E 117°51'499853.5
2015-Jun-26 11:34N 31°22' E 121°40'49642538.7
2015-Jun-26 11:33N 38°59' E 117°43'496500.1
2015-Jun-26 10:33N 31°22' E 121°40'  
Track history (hours):
 
Tides and Currents Weather Stations Pressure Air Temp Water Temp Dewpoint Dewpoint Depression Visibility Wind Speed Wind Dir Waves Ship Positions

Graceful Lady

Last reported at 2015-Jul-06 10:33 UTC. Time now 2015-Jul-06 11:21 UTC.
Position N 23°02' E 113°31'.

Length 6 m.

Type: Pollution control. MMSI: 316014038.

Date/timePositionNaut miles runAvg speedWind from/ knotsBaromVisibWave heightAir tempDewpointWater temp
2015-Jul-06 10:33N 23°02' E 113°31'9733482.4
2015-Jul-06 10:16N 37°51' E 121°10'9731154.6
2015-Jul-06 09:26N 23°02' E 113°31'9774318.9
2015-Jul-06 09:12N 37°54' E 121°12'9751511.0
2015-Jul-06 08:33N 23°03' E 113°31'97146628.0
2015-Jul-06 08:32N 37°50' E 121°09'362901.5
2015-Jul-06 08:08N 31°49' E 120°56'6581115.2
2015-Jul-06 07:33N 23°03' E 113°31'1 1.3
2015-Jul-06 06:32N 23°02' E 113°31'0 0.0
2015-Jul-06 05:31N 23°02' E 113°31'0 0.0
2015-Jul-06 04:33N 23°02' E 113°31'0 0.0
2015-Jul-06 03:33N 23°02' E 113°31'0 0.0
2015-Jul-06 02:30N 23°02' E 113°31'6596612.1
2015-Jul-06 02:24N 31°49' E 120°57'659633.0
2015-Jul-06 01:22N 23°02' E 113°31'6200245293.3
2015-Jul-06 01:20N 48°34' W 123°02'62007371.8
2015-Jul-06 00:30N 23°02' E 113°31'0 0.0
2015-Jul-05 23:30N 23°02' E 113°31'0 0.0
2015-Jul-05 22:32N 23°02' E 113°31'0 0.0
2015-Jul-05 21:22N 23°02' E 113°31'0 0.0
2015-Jul-05 20:21N 23°02' E 113°31'6596724.3
2015-Jul-05 20:16N 31°49' E 120°57'659915.0
2015-Jul-05 19:32N 23°02' E 113°31'65931648.5
2015-Jul-05 19:31N 31°49' E 120°57'659679.7
2015-Jul-05 18:33N 23°02' E 113°31'0 0.0
2015-Jul-05 17:33N 23°02' E 113°31'66013646.6
2015-Jul-05 17:30N 31°49' E 120°57'660682.7
2015-Jul-05 16:32N 23°02' E 113°31'0 0.0
2015-Jul-05 15:32N 23°02' E 113°31'0 0.0
2015-Jul-05 14:31N 23°02' E 113°31'6591725.1
2015-Jul-05 14:08N 31°49' E 120°57'6591119.7
2015-Jul-05 13:33N 23°02' E 113°31'6591348.0
2015-Jul-05 13:03N 31°49' E 120°57'6591237.7
2015-Jul-05 12:31N 23°02' E 113°31'0 0.0
2015-Jul-05 11:27N 23°02' E 113°31'659698.0
2015-Jul-05 10:31N 31°49' E 120°57'659690.3
2015-Jul-05 09:33N 23°02' E 113°31'0 0.0
2015-Jul-05 08:30N 23°02' E 113°31'6592082.3
2015-Jul-05 08:11N 31°49' E 120°57'6591042.0
2015-Jul-05 07:33N 23°01' E 113°32'6593405.4
2015-Jul-05 07:22N 31°49' E 120°57'659819.3
2015-Jul-05 06:33N 23°01' E 113°32'6598156.6
2015-Jul-05 06:28N 31°49' E 120°57'659712.6
2015-Jul-05 05:33N 23°01' E 113°32'66060959.0
2015-Jul-05 05:32N 31°32' E 121°22'27138.2
2015-Jul-05 05:20N 31°49' E 120°57'3340.2
2015-Jul-05 04:32N 31°29' E 121°27'33299.9
2015-Jul-05 04:25N 31°49' E 120°57'3742.3
2015-Jul-05 03:32N 31°26' E 121°31'5342.7
2015-Jul-05 02:18N 32°01' E 120°45'4 3.4
2015-Jul-05 01:09N 31°60' E 120°50'2 3.3
2015-Jul-05 00:25N 31°58' E 120°52'3 3.0
2015-Jul-04 23:26N 31°55' E 120°53'7212.3
2015-Jul-04 23:24N 31°48' E 120°55'8 8.5
2015-Jul-04 22:28N 31°56' E 120°52'24 6.2
2015-Jul-04 18:31N 31°39' E 121°13'7 7.0
2015-Jul-04 17:33N 31°35' E 121°19'14 6.2
2015-Jul-04 15:19N 31°25' E 121°31'2 0.6
2015-Jul-04 11:33N 31°23' E 121°30'441376.4
2015-Jul-04 10:22N 38°16' E 118°22'449506.7
2015-Jul-04 09:29N 31°15' E 121°30'4497694.0
2015-Jul-04 09:26N 38°16' E 118°22'5 3.8
2015-Jul-04 08:13N 38°16' E 118°16'951190.1
2015-Jul-04 03:13N 22°57' E 113°33'4 6.4
2015-Jul-04 02:33N 23°01' E 113°31'1 0.6
2015-Jul-04 01:22N 23°01' E 113°32'0 0.0
2015-Jul-04 00:26N 23°01' E 113°32'0 0.0
2015-Jul-03 23:33N 23°01' E 113°32'0 0.0
2015-Jul-03 22:29N 23°01' E 113°32'0 0.0
2015-Jul-03 18:31N 23°01' E 113°32'0 0.0
2015-Jul-03 17:31N 23°01' E 113°32'0 0.0
2015-Jul-03 16:27N 23°01' E 113°32'0 0.0
2015-Jul-03 15:29N 23°01' E 113°32'0 0.0
2015-Jul-03 14:31N 23°01' E 113°32'0 0.0
2015-Jul-03 13:29N 23°01' E 113°32'0 0.0
2015-Jul-03 12:29N 23°01' E 113°32'0 0.0
2015-Jul-03 11:25N 23°01' E 113°32'0 0.0
2015-Jul-03 10:32N 23°01' E 113°32'0 0.0
2015-Jul-03 09:21N 23°01' E 113°32'0 0.0
2015-Jul-03 08:13N 23°01' E 113°32'0 0.0
2015-Jul-03 07:33N 23°01' E 113°32'0 0.0
2015-Jul-03 06:22N 23°01' E 113°32'0 0.0
2015-Jul-03 05:31N 23°01' E 113°32'0 0.0
2015-Jul-03 04:27N 23°01' E 113°32'0 0.0
2015-Jul-03 03:33N 23°01' E 113°32'948959411.7
2015-Jul-03 03:24N 41°22' W 072°05'2 2.7
2015-Jul-03 02:29N 41°24' W 072°06'94881897575.1
2015-Jul-03 02:29N 23°01' E 113°32'0 0.0
2015-Jul-03 01:32N 23°01' E 113°32'0 0.0
2015-Jul-03 00:31N 23°01' E 113°32'0 0.0
2015-Jul-02 23:33N 23°01' E 113°32'6802499755.3
2015-Jul-02 23:32N 33°46' W 118°11'22391796.6
2015-Jul-02 22:17N 41°30' W 072°05'870336303.2
2015-Jul-02 22:03N 38°55' E 117°49'871217366.2
2015-Jul-02 21:33N 41°22' W 072°05'948949082.6
2015-Jul-02 21:21N 23°01' E 113°32'0 0.0
2015-Jul-02 20:31N 23°01' E 113°32'1 1.2
2015-Jul-02 19:33N 23°02' E 113°31'0 0.0
2015-Jul-02 18:32N 23°02' E 113°31'0 0.0
2015-Jul-02 17:33N 23°02' E 113°31'0 0.0
2015-Jul-02 15:31N 23°02' E 113°31'9478832.3
2015-Jul-02 15:25N 38°16' E 118°20'9471009.3
2015-Jul-02 14:29N 23°02' E 113°31'0 0.0
2015-Jul-02 13:33N 23°02' E 113°31'0 0.0
2015-Jul-02 12:33N 23°02' E 113°31'0 0.0
2015-Jul-02 11:33N 23°02' E 113°31'98815954.1
2015-Jul-02 11:30N 39°03' E 117°59'9881053.2
2015-Jul-02 10:33N 23°02' E 113°31'0 0.0
2015-Jul-02 09:32N 23°02' E 113°31'0 0.0
2015-Jul-02 08:32N 23°02' E 113°31'948972.3
2015-Jul-02 07:33N 38°16' E 118°21'94833790.3
2015-Jul-02 07:32N 23°02' E 113°31'9895484.8
2015-Jul-02 07:21N 39°04' E 117°57'9891250.7
2015-Jul-02 06:34N 23°02' E 113°31'0 0.0
2015-Jul-02 05:33N 23°02' E 113°31'0 0.0
2015-Jul-02 04:33N 23°02' E 113°31'0 0.0
2015-Jul-02 03:32N 23°02' E 113°31'0 0.0
2015-Jul-02 02:33N 23°02' E 113°31'1 1.2
2015-Jul-02 01:33N 23°03' E 113°31'0 0.0
2015-Jul-02 00:33N 23°03' E 113°31'0 0.0
2015-Jul-01 23:32N 23°03' E 113°31'9894133.1
2015-Jul-01 23:18N 39°05' E 117°57'9901321.0
2015-Jul-01 22:33N 23°02' E 113°31'0 0.0
2015-Jul-01 21:33N 23°02' E 113°31'0 0.0
2015-Jul-01 20:30N 23°02' E 113°31'0 0.0
2015-Jul-01 19:33N 23°02' E 113°31'0 0.0
2015-Jul-01 18:33N 23°02' E 113°31'620220186.2
2015-Jul-01 18:15N 48°32' W 123°01'62028476.1
2015-Jul-01 17:31N 23°02' E 113°31'618538860.2
2015-Jul-01 17:21N 48°39' W 123°19'9231131.4
2015-Jul-01 16:33N 33°46' W 118°12'6802211098.7
2015-Jul-01 16:31N 23°02' E 113°31'0 0.0
2015-Jul-01 15:31N 23°02' E 113°31'0 0.0
2015-Jul-01 13:32N 23°02' E 113°31'0 0.0
2015-Jul-01 12:33N 23°02' E 113°31'0 0.0
2015-Jul-01 11:28N 23°02' E 113°31'0 0.0
2015-Jul-01 10:32N 23°02' E 113°31'6632874.0
2015-Jul-01 10:18N 32°02' E 120°45'3158.2
2015-Jul-01 10:17N 32°01' E 120°49'4 5.0
2015-Jul-01 09:33N 31°58' E 120°51'66455564.1
2015-Jul-01 09:33N 23°02' E 113°31'0 0.0
2015-Jul-01 08:33N 23°02' E 113°31'66110624.4
2015-Jul-01 08:30N 31°53' E 120°53'661704.1
2015-Jul-01 07:33N 23°02' E 113°31'658124753.1
2015-Jul-01 07:33N 31°49' E 120°55'658661.7
2015-Jul-01 06:33N 23°02' E 113°31'0 0.0
2015-Jul-01 05:33N 23°02' E 113°31'0 0.0
2015-Jul-01 04:33N 23°02' E 113°31'6601515.3
2015-Jul-01 04:07N 31°35' E 121°19'6601159.8
2015-Jul-01 03:33N 23°02' E 113°31'6604193.2
2015-Jul-01 03:24N 31°31' E 121°24'660784.4
2015-Jul-01 02:33N 23°02' E 113°31'66024751.7
2015-Jul-01 02:32N 31°26' E 121°30'9 8.9
2015-Jul-01 01:33N 31°22' E 121°39'66270095.4
2015-Jul-01 01:33N 23°02' E 113°31'618415072.8
2015-Jul-01 01:08N 48°38' W 123°21'53869247.0
2015-Jul-01 00:33N 31°16' E 121°46'6621879.4
2015-Jul-01 00:12N 23°02' E 113°31'6621022.2
2015-Jun-30 23:33N 31°11' E 121°51'662264638.5
2015-Jun-30 23:33N 23°02' E 113°31'0 0.0
2015-Jun-30 22:33N 23°02' E 113°31'6628735.9
2015-Jun-30 22:29N 31°07' E 121°57'662716.8
2015-Jun-30 21:33N 23°02' E 113°31'0 0.0
2015-Jun-30 20:33N 23°02' E 113°31'0 0.0
2015-Jun-30 19:32N 23°02' E 113°31'0 0.0
2015-Jun-30 18:33N 23°02' E 113°31'0 0.0
2015-Jun-30 17:32N 23°02' E 113°31'0 0.0
2015-Jun-30 16:33N 23°02' E 113°31'0 0.0
2015-Jun-30 15:33N 23°02' E 113°31'0 0.0
2015-Jun-30 14:33N 23°02' E 113°31'0 0.0
2015-Jun-30 13:33N 23°02' E 113°31'0 0.0
2015-Jun-30 12:33N 23°02' E 113°31'0 0.0
2015-Jun-30 11:33N 23°02' E 113°31'6172865.6
2015-Jun-30 11:21N 29°59' E 121°58'617780.6
2015-Jun-30 10:33N 23°02' E 113°31'61924210.6
2015-Jun-30 10:32N 29°56' E 122°05'619638.8
2015-Jun-30 09:33N 23°02' E 113°31'664654.6
2015-Jun-30 08:33N 32°01' E 120°49'66479703.7
2015-Jun-30 08:32N 23°02' E 113°31'0 0.0
2015-Jun-30 07:33N 23°02' E 113°31'6634690.0
2015-Jun-30 07:24N 31°57' E 120°53'663727.4
2015-Jun-30 06:30N 23°02' E 113°31'66114083.4
2015-Jun-30 06:27N 31°53' E 120°54'661700.2
2015-Jun-30 05:30N 23°02' E 113°31'65950478.7
2015-Jun-30 05:29N 31°49' E 120°56'4 4.4
2015-Jun-30 04:32N 31°47' E 120°60'659263647.9
2015-Jun-30 04:32N 23°02' E 113°31'1 1.1
2015-Jun-30 03:32N 23°03' E 113°31'0 0.0
2015-Jun-30 02:33N 23°03' E 113°31'0 0.0
2015-Jun-30 01:33N 23°03' E 113°31'0 0.0
2015-Jun-30 00:33N 23°03' E 113°31'0 0.0
2015-Jun-29 23:30N 23°03' E 113°31'1 1.2
2015-Jun-29 22:33N 23°02' E 113°31'0 0.0
2015-Jun-29 21:26N 23°02' E 113°31'0 0.0
2015-Jun-29 20:31N 23°02' E 113°31'0 0.0
2015-Jun-29 19:33N 23°02' E 113°31'0 0.0
2015-Jun-29 18:31N 23°02' E 113°31'0 0.0
2015-Jun-29 17:33N 23°02' E 113°31'0 0.0
2015-Jun-29 16:32N 23°02' E 113°31'0 0.0
2015-Jun-29 15:33N 23°02' E 113°31'0 0.0
2015-Jun-29 14:33N 23°02' E 113°31'0 0.0
2015-Jun-29 13:33N 23°02' E 113°31'0 0.0
2015-Jun-29 12:32N 23°02' E 113°31'0 0.0
2015-Jun-29 11:33N 23°02' E 113°31'0 0.1
2015-Jun-29 10:32N 23°02' E 113°31'0 0.0
2015-Jun-29 09:32N 23°02' E 113°31'0 0.1
2015-Jun-29 08:33N 23°02' E 113°31'1 1.2
2015-Jun-29 07:33N 23°03' E 113°31'66215084.4
2015-Jun-29 07:31N 31°47' E 121°06'662690.8
2015-Jun-29 06:33N 23°03' E 113°31'6615818.8
2015-Jun-29 06:26N 31°45' E 121°07'661714.7
2015-Jun-29 05:31N 23°03' E 113°31'978159991.7
2015-Jun-29 05:30N 38°55' E 117°49'465490.8
2015-Jun-29 04:34N 31°41' E 121°12'66131726.7
2015-Jun-29 04:32N 23°02' E 113°31'661675.0
2015-Jun-29 03:34N 31°38' E 121°16'66179317.5
2015-Jun-29 03:33N 23°02' E 113°31'660665.9
2015-Jun-29 02:34N 31°34' E 121°19'66020494.5
2015-Jun-29 02:32N 23°01' E 113°32'1 1.0
2015-Jun-29 01:32N 23°02' E 113°31'0 0.0
2015-Jun-29 00:20N 23°02' E 113°31'0 0.0
2015-Jun-28 23:33N 23°02' E 113°31'0 0.0
2015-Jun-28 22:33N 23°02' E 113°31'0 0.0
2015-Jun-28 21:25N 23°02' E 113°31'0 0.0
2015-Jun-28 20:33N 23°02' E 113°31'0 0.0
2015-Jun-28 19:22N 23°02' E 113°31'0 0.0
2015-Jun-28 18:26N 23°02' E 113°31'0 0.0
2015-Jun-28 17:33N 23°02' E 113°31'0 0.0
2015-Jun-28 16:33N 23°02' E 113°31'0 0.0
2015-Jun-28 14:31N 23°02' E 113°31'0 0.0
2015-Jun-28 13:32N 23°02' E 113°31'0 0.0
2015-Jun-28 12:33N 23°02' E 113°31'0 0.0
2015-Jun-28 11:32N 23°02' E 113°31'0 0.1
2015-Jun-28 10:31N 23°02' E 113°31'1 1.0
2015-Jun-28 09:32N 23°01' E 113°32'0 0.0
2015-Jun-28 08:33N 23°01' E 113°32'0 0.0
2015-Jun-28 07:32N 23°01' E 113°32'0 0.0
2015-Jun-28 06:32N 23°01' E 113°32'9892398.3
2015-Jun-28 06:07N 39°04' E 117°56'9891770.1
2015-Jun-28 05:33N 23°01' E 113°32'66468251.0
2015-Jun-28 05:33N 31°58' E 120°51'664661.3
2015-Jun-28 04:32N 23°01' E 113°32'0 0.0
2015-Jun-28 03:32N 23°01' E 113°32'1 1.1
2015-Jun-28 02:33N 23°02' E 113°31'9874934.4
2015-Jun-28 02:21N 39°02' E 117°57'9871220.5
2015-Jun-28 01:32N 23°02' E 113°31'6632609.7
2015-Jun-28 01:17N 32°02' E 120°45'663902.5
2015-Jun-28 00:33N 23°02' E 113°31'0 0.0
2015-Jun-27 23:33N 23°02' E 113°31'0 0.0
2015-Jun-27 22:33N 23°02' E 113°31'680162299.0
2015-Jun-27 22:26N 33°45' W 118°13'68017735.7
2015-Jun-27 21:33N 23°02' E 113°31'0 0.1
2015-Jun-27 20:33N 23°02' E 113°31'0 0.0
2015-Jun-27 19:33N 23°02' E 113°31'0 0.0
2015-Jun-27 18:32N 23°02' E 113°31'0 0.0
2015-Jun-27 17:33N 23°02' E 113°31'0 0.0
2015-Jun-27 16:34N 23°02' E 113°31'0 0.1
2015-Jun-27 15:34N 23°02' E 113°31'0 0.0
2015-Jun-27 14:31N 23°02' E 113°31'0 0.0
2015-Jun-27 13:33N 23°02' E 113°31'0 0.0
2015-Jun-27 12:33N 23°02' E 113°31'98815603.0
2015-Jun-27 12:29N 39°05' E 117°51'53200.7
2015-Jun-27 12:14N 38°16' E 118°19'9471409.4
2015-Jun-27 11:33N 23°02' E 113°31'9479115.5
2015-Jun-27 11:27N 38°16' E 118°19'9471026.2
2015-Jun-27 10:32N 23°02' E 113°31'9474651.0
2015-Jun-27 10:19N 38°16' E 118°19'9471205.9
2015-Jun-27 09:32N 23°02' E 113°31'94739641.6
2015-Jun-27 09:31N 38°16' E 118°19'947866.6
2015-Jun-27 08:25N 23°02' E 113°31'94713746.9
2015-Jun-27 08:21N 38°16' E 118°19'0 0.0
2015-Jun-27 07:33N 38°16' E 118°19'94779283.7
2015-Jun-27 07:33N 23°02' E 113°31'0 0.0
2015-Jun-27 06:33N 23°02' E 113°31'0 0.1
2015-Jun-27 05:33N 23°02' E 113°31'947154964.3
2015-Jun-27 05:33N 38°16' E 118°19'947942.3
2015-Jun-27 04:33N 23°02' E 113°31'1 1.2
2015-Jun-27 03:31N 23°01' E 113°32'0 0.0
2015-Jun-27 02:32N 23°01' E 113°32'0 0.0
2015-Jun-27 01:33N 23°01' E 113°32'0 0.0
2015-Jun-27 00:33N 23°01' E 113°32'0 0.0
2015-Jun-26 23:33N 23°01' E 113°32'63223211.1
2015-Jun-26 23:32N 30°58' E 121°17'632646.9
2015-Jun-26 22:33N 23°01' E 113°32'6652300.4
2015-Jun-26 22:16N 32°04' E 120°45'666832.8
2015-Jun-26 21:28N 23°00' E 113°31'990228.0
2015-Jun-26 17:07N 39°05' E 117°51'499886.7
2015-Jun-26 16:33N 31°22' E 121°40'4991102.5
2015-Jun-26 16:06N 39°05' E 117°51'499914.2
2015-Jun-26 15:33N 31°22' E 121°40'0 0.0
2015-Jun-26 14:32N 31°22' E 121°40'4991677.3
2015-Jun-26 14:14N 39°05' E 117°51'913.5
2015-Jun-26 13:33N 38°59' E 117°43'49659553.6
2015-Jun-26 13:32N 31°22' E 121°40'496500.2
2015-Jun-26 12:33N 38°59' E 117°43'496119111.7
2015-Jun-26 12:33N 31°22' E 121°40'4991249.1
2015-Jun-26 12:09N 39°05' E 117°51'499853.5
2015-Jun-26 11:34N 31°22' E 121°40'49642538.7
2015-Jun-26 11:33N 38°59' E 117°43'496500.1
2015-Jun-26 10:33N 31°22' E 121°40'  

Dump ship's entire track history